createdAt,value
2019-04-27T00:02:29.550Z,17.40
2019-04-27T00:05:32.332Z,17.40
2019-04-27T00:08:14.962Z,17.50
2019-04-27T00:11:08.670Z,17.50
2019-04-27T00:13:40.743Z,17.50
2019-04-27T00:16:40.383Z,17.50
2019-04-27T00:19:39.636Z,17.50
2019-04-27T00:22:23.036Z,17.60
2019-04-27T00:24:55.170Z,17.60
2019-04-27T00:27:26.972Z,17.70
2019-04-27T00:29:59.009Z,17.60
2019-04-27T00:32:30.662Z,17.60
2019-04-27T00:35:03.738Z,17.50
2019-04-27T00:37:56.294Z,17.40
2019-04-27T00:40:36.537Z,17.40
2019-04-27T00:43:08.400Z,17.40
2019-04-27T00:45:40.315Z,17.40
2019-04-27T00:48:13.443Z,17.40
2019-04-27T00:50:45.391Z,17.40
2019-04-27T00:53:17.412Z,17.30
2019-04-27T00:56:07.452Z,17.30
2019-04-27T00:59:18.692Z,17.30
2019-04-27T01:02:06.574Z,17.30
2019-04-27T01:04:38.273Z,17.20
2019-04-27T01:07:10.617Z,17.20
2019-04-27T01:09:42.940Z,17.20
2019-04-27T01:12:15.262Z,17.20
2019-04-27T01:14:46.992Z,17.20
2019-04-27T01:17:19.008Z,17.10
2019-04-27T01:19:50.982Z,17.10
2019-04-27T01:22:22.804Z,17.10
2019-04-27T01:24:54.654Z,17.10
2019-04-27T01:27:49.420Z,17.10
2019-04-27T01:30:30.081Z,17.10
2019-04-27T01:33:01.911Z,17.00
2019-04-27T01:35:33.808Z,17.10
2019-04-27T01:38:05.625Z,17.10
2019-04-27T01:40:38.568Z,17.10
2019-04-27T01:43:10.411Z,17.10
2019-04-27T01:45:42.262Z,17.00
2019-04-27T01:48:22.946Z,17.00
2019-04-27T01:50:49.120Z,17.00
2019-04-27T01:53:21.438Z,17.10
2019-04-27T01:55:53.158Z,17.10
2019-04-27T01:58:24.755Z,17.10
2019-04-27T02:01:18.692Z,17.10
2019-04-27T02:04:11.496Z,17.10
2019-04-27T02:06:43.550Z,17.10
2019-04-27T02:09:18.802Z,17.10
2019-04-27T02:11:50.946Z,17.10
2019-04-27T02:14:22.839Z,17.10
2019-04-27T02:16:54.704Z,17.10
2019-04-27T02:19:26.484Z,17.00
2019-04-27T02:21:59.776Z,17.00
2019-04-27T02:24:31.658Z,17.00
2019-04-27T02:27:03.352Z,17.00
2019-04-27T02:29:59.181Z,16.90
2019-04-27T02:32:52.252Z,16.90
2019-04-27T02:35:24.129Z,16.90
2019-04-27T02:37:55.945Z,17.00
2019-04-27T02:40:59.823Z,17.00
2019-04-27T02:43:54.059Z,17.00
2019-04-27T02:46:26.134Z,17.00
2019-04-27T02:49:03.541Z,17.00
2019-04-27T02:51:59.483Z,17.00
2019-04-27T02:54:31.670Z,17.10
2019-04-27T02:57:03.515Z,17.10
2019-04-27T02:59:35.114Z,17.10
2019-04-27T03:02:22.611Z,17.10
2019-04-27T03:04:54.485Z,17.10
2019-04-27T03:07:26.336Z,17.10
2019-04-27T03:09:59.631Z,17.10
2019-04-27T03:12:37.121Z,17.00
2019-04-27T03:15:35.451Z,17.00
2019-04-27T03:18:29.707Z,17.00
2019-04-27T03:21:10.381Z,17.00
2019-04-27T03:23:42.538Z,17.00
2019-04-27T03:26:46.054Z,16.90
2019-04-27T03:29:20.176Z,16.90
2019-04-27T03:31:54.109Z,16.90
2019-04-27T03:34:25.089Z,16.90
2019-04-27T03:36:56.793Z,16.90
2019-04-27T03:39:29.989Z,17.00
2019-04-27T03:42:02.116Z,17.00
2019-04-27T03:44:33.943Z,17.10
2019-04-27T03:47:05.873Z,17.10
2019-04-27T03:49:41.220Z,17.10
2019-04-27T03:52:20.701Z,17.10
2019-04-27T03:55:00.246Z,17.20
2019-04-27T03:57:56.473Z,17.20
2019-04-27T04:00:30.059Z,17.20
2019-04-27T04:03:02.191Z,17.30
2019-04-27T04:05:34.302Z,17.30
2019-04-27T04:08:06.199Z,17.40
2019-04-27T04:10:41.854Z,17.50
2019-04-27T04:13:22.445Z,17.60
2019-04-27T04:16:07.331Z,17.60
2019-04-27T04:19:00.429Z,17.70
2019-04-27T04:21:31.337Z,17.70
2019-04-27T04:24:03.442Z,17.70
2019-04-27T04:26:35.224Z,17.70
2019-04-27T04:29:07.208Z,17.70
2019-04-27T04:31:40.568Z,17.70
2019-04-27T04:34:12.487Z,17.80
2019-04-27T04:36:44.375Z,17.90
2019-04-27T04:39:16.344Z,17.90
2019-04-27T04:42:04.542Z,18.00
2019-04-27T04:44:55.753Z,18.10
2019-04-27T04:47:40.715Z,18.10
2019-04-27T04:50:15.097Z,18.20
2019-04-27T04:52:46.966Z,18.30
2019-04-27T04:55:20.372Z,18.30
2019-04-27T04:57:52.734Z,18.40
2019-04-27T05:00:24.518Z,18.40
2019-04-27T05:02:56.475Z,18.40
2019-04-27T05:05:29.296Z,18.30
2019-04-27T05:08:01.345Z,18.40
2019-04-27T05:10:33.291Z,18.30
2019-04-27T05:13:05.145Z,18.30
2019-04-27T05:15:37.119Z,18.30
2019-04-27T05:18:09.100Z,18.20
2019-04-27T05:20:52.107Z,18.20
2019-04-27T05:23:24.014Z,18.20
2019-04-27T05:25:55.927Z,18.20
2019-04-27T05:28:29.637Z,18.10
2019-04-27T05:31:01.463Z,18.10
2019-04-27T05:33:33.400Z,18.10
2019-04-27T05:36:05.461Z,18.10
2019-04-27T05:38:41.929Z,18.10
2019-04-27T05:41:18.729Z,18.20
2019-04-27T05:44:12.702Z,18.30
2019-04-27T05:47:13.344Z,18.20
2019-04-27T05:49:49.323Z,18.10
2019-04-27T05:52:31.957Z,18.00
2019-04-27T05:55:04.368Z,18.00
2019-04-27T05:57:36.170Z,18.00
2019-04-27T06:00:10.241Z,17.90
2019-04-27T06:02:42.417Z,17.80
2019-04-27T06:05:14.381Z,17.70
2019-04-27T06:07:46.298Z,17.70
2019-04-27T06:10:19.832Z,17.70
2019-04-27T06:12:52.086Z,17.70
2019-04-27T06:15:23.837Z,18.10
2019-04-27T06:17:55.586Z,18.90
2019-04-27T06:20:28.571Z,19.60
2019-04-27T06:23:01.066Z,19.90
2019-04-27T06:25:32.885Z,20.00
2019-04-27T06:28:04.816Z,20.30
2019-04-27T06:30:36.735Z,21.20
2019-04-27T06:33:09.424Z,22.10
2019-04-27T06:35:41.400Z,22.50
2019-04-27T06:38:13.671Z,22.60
2019-04-27T06:40:45.738Z,22.60
2019-04-27T06:43:18.909Z,22.70
2019-04-27T06:45:51.145Z,22.70
2019-04-27T06:48:23.296Z,22.90
2019-04-27T06:51:02.763Z,23.00
2019-04-27T06:53:29.192Z,22.80
2019-04-27T06:56:01.083Z,22.80
2019-04-27T06:58:33.219Z,22.90
2019-04-27T07:01:05.259Z,23.10
2019-04-27T07:03:37.200Z,23.40
2019-04-27T07:06:09.211Z,23.60
2019-04-27T07:08:42.163Z,23.90
2019-04-27T07:11:14.145Z,24.00
2019-04-27T07:13:46.096Z,24.40
2019-04-27T07:16:19.547Z,24.90
2019-04-27T07:18:51.870Z,24.80
2019-04-27T07:21:24.891Z,23.90
2019-04-27T07:24:01.627Z,23.00
2019-04-27T07:26:41.386Z,22.00
2019-04-27T07:29:13.358Z,21.10
2019-04-27T07:31:45.432Z,20.40
2019-04-27T07:34:18.991Z,20.10
2019-04-27T07:36:52.786Z,20.00
2019-04-27T07:39:24.548Z,19.80
2019-04-27T07:41:58.491Z,19.60
2019-04-27T07:44:39.228Z,19.50
2019-04-27T07:47:26.048Z,19.30
2019-04-27T07:49:59.291Z,19.30
2019-04-27T07:52:31.844Z,19.20
2019-04-27T07:55:03.705Z,19.20
2019-04-27T07:57:35.636Z,19.00
2019-04-27T08:00:09.362Z,18.80
2019-04-27T08:02:41.715Z,18.60
2019-04-27T08:05:13.850Z,18.30
2019-04-27T08:07:46.058Z,18.20
2019-04-27T08:10:19.371Z,18.00
2019-04-27T08:12:51.940Z,17.80
2019-04-27T08:15:24.018Z,17.70
2019-04-27T08:17:55.904Z,17.70
2019-04-27T08:20:29.402Z,17.80
2019-04-27T08:23:02.057Z,18.00
2019-04-27T08:25:34.100Z,18.20
2019-04-27T08:28:30.574Z,18.20
2019-04-27T08:31:12.122Z,18.30
2019-04-27T08:33:44.293Z,18.30
2019-04-27T08:36:16.351Z,18.20
2019-04-27T08:38:48.950Z,18.10
2019-04-27T08:41:21.284Z,18.10
2019-04-27T08:43:54.046Z,18.10
2019-04-27T08:46:26.130Z,18.10
2019-04-27T08:48:58.751Z,18.20
2019-04-27T08:51:30.764Z,18.30
2019-04-27T08:54:10.490Z,18.40
2019-04-27T08:56:42.363Z,18.20
2019-04-27T08:59:14.575Z,18.10
2019-04-27T09:01:46.558Z,18.10
2019-04-27T09:04:20.058Z,18.00
2019-04-27T09:06:59.534Z,18.00
2019-04-27T09:09:41.218Z,17.90
2019-04-27T09:12:32.354Z,18.20
2019-04-27T09:15:12.807Z,18.40
2019-04-27T09:17:49.776Z,18.60
2019-04-27T09:20:25.845Z,18.70
2019-04-27T09:22:59.159Z,18.80
2019-04-27T09:25:31.759Z,18.60
2019-04-27T09:28:03.707Z,18.60
2019-04-27T09:30:36.148Z,18.40
2019-04-27T09:33:08.596Z,18.40
2019-04-27T09:35:40.737Z,18.20
2019-04-27T09:38:12.944Z,18.20
2019-04-27T09:40:46.418Z,18.20
2019-04-27T09:43:18.675Z,18.20
2019-04-27T09:45:50.814Z,18.20
2019-04-27T09:48:22.764Z,18.20
2019-04-27T09:50:55.967Z,18.20
2019-04-27T09:53:28.274Z,18.20
2019-04-27T09:56:00.336Z,18.30
2019-04-27T09:58:33.284Z,18.50
2019-04-27T10:01:06.628Z,18.70
2019-04-27T10:03:38.851Z,18.80
2019-04-27T10:06:10.962Z,18.70
2019-04-27T10:08:43.221Z,18.70
2019-04-27T10:11:16.253Z,18.80
2019-04-27T10:13:48.233Z,18.70
2019-04-27T10:16:20.388Z,18.70
2019-04-27T10:18:52.358Z,18.70
2019-04-27T10:21:26.301Z,18.80
2019-04-27T10:23:57.755Z,18.80
2019-04-27T10:26:30.041Z,18.70
2019-04-27T10:29:01.960Z,18.60
2019-04-27T10:31:34.184Z,18.50
2019-04-27T10:34:06.386Z,18.60
2019-04-27T10:36:42.954Z,18.60
2019-04-27T10:39:16.921Z,18.50
2019-04-27T10:41:57.096Z,18.50
2019-04-27T10:44:36.864Z,18.40
2019-04-27T10:47:08.777Z,18.30
2019-04-27T10:49:40.775Z,18.20
2019-04-27T10:52:12.856Z,18.10
2019-04-27T10:54:44.923Z,18.00
2019-04-27T10:57:17.046Z,17.90
2019-04-27T10:59:48.804Z,17.90
2019-04-27T11:02:21.032Z,17.80
2019-04-27T11:05:09.280Z,17.80
2019-04-27T11:07:41.898Z,17.90
2019-04-27T11:10:16.189Z,17.90
2019-04-27T11:12:48.099Z,18.00
2019-04-27T11:15:20.682Z,17.90
2019-04-27T11:17:52.724Z,17.90
2019-04-27T11:20:27.456Z,17.80
2019-04-27T11:23:07.214Z,17.70
2019-04-27T11:25:33.618Z,17.70
2019-04-27T11:28:05.830Z,17.70
2019-04-27T11:30:38.546Z,17.80
2019-04-27T11:33:10.423Z,17.90
2019-04-27T11:36:15.396Z,17.90
2019-04-27T11:38:48.695Z,17.90
2019-04-27T11:41:21.036Z,17.80
2019-04-27T11:43:53.023Z,17.70
2019-04-27T11:46:26.610Z,17.60
2019-04-27T11:48:58.938Z,17.50
2019-04-27T11:51:31.473Z,17.40
2019-04-27T11:54:03.500Z,17.30
2019-04-27T11:56:36.192Z,17.20
2019-04-27T11:59:08.361Z,17.20
2019-04-27T12:01:40.639Z,17.10
2019-04-27T12:04:12.849Z,17.00
2019-04-27T12:06:46.237Z,17.00
2019-04-27T12:09:18.796Z,17.00
2019-04-27T12:11:50.794Z,17.00
2019-04-27T12:14:22.854Z,17.00
2019-04-27T12:16:56.121Z,16.90
2019-04-27T12:19:28.206Z,16.90
2019-04-27T12:22:00.248Z,17.00
2019-04-27T12:24:39.680Z,17.10
2019-04-27T12:27:36.126Z,17.10
2019-04-27T12:30:24.011Z,17.10
2019-04-27T12:32:56.398Z,17.00
2019-04-27T12:35:28.332Z,17.00
2019-04-27T12:38:00.505Z,17.00
2019-04-27T12:40:32.804Z,17.00
2019-04-27T12:43:05.072Z,17.00
2019-04-27T12:45:39.966Z,17.00
2019-04-27T12:48:11.184Z,17.00
2019-04-27T12:50:43.370Z,16.90
2019-04-27T12:53:24.223Z,16.80
2019-04-27T12:56:23.693Z,16.80
2019-04-27T12:59:06.029Z,16.80
2019-04-27T13:01:38.047Z,16.80
2019-04-27T13:04:10.146Z,16.70
2019-04-27T13:06:42.530Z,16.60
2019-04-27T13:09:22.880Z,16.60
2019-04-27T13:11:56.024Z,16.60
2019-04-27T13:14:27.997Z,16.50
2019-04-27T13:17:00.360Z,16.50
2019-04-27T13:19:32.632Z,16.50
2019-04-27T13:22:06.113Z,16.50
2019-04-27T13:24:38.206Z,16.40
2019-04-27T13:27:17.905Z,16.30
2019-04-27T13:29:50.005Z,16.20
2019-04-27T13:32:21.965Z,16.20
2019-04-27T13:34:54.140Z,16.10
2019-04-27T13:37:41.616Z,16.10
2019-04-27T13:40:16.794Z,16.00
2019-04-27T13:42:57.483Z,15.90
2019-04-27T13:45:59.697Z,15.80
2019-04-27T13:48:51.478Z,15.70
2019-04-27T13:51:43.135Z,15.60
2019-04-27T13:54:23.729Z,15.60
2019-04-27T13:56:48.962Z,15.50
2019-04-27T13:59:21.854Z,15.50
2019-04-27T14:01:54.024Z,15.50
2019-04-27T14:04:26.019Z,15.50
2019-04-27T14:06:58.988Z,15.40
2019-04-27T14:09:31.187Z,15.40
2019-04-27T14:12:13.818Z,15.30
2019-04-27T14:14:45.646Z,15.20
2019-04-27T14:17:19.316Z,15.20
2019-04-27T14:19:51.514Z,15.10
2019-04-27T14:22:23.617Z,15.10
2019-04-27T14:24:55.636Z,15.00
2019-04-27T14:27:30.890Z,15.00
2019-04-27T14:30:02.821Z,14.90
2019-04-27T14:32:34.970Z,14.90
2019-04-27T14:35:08.413Z,14.80
2019-04-27T14:37:40.800Z,14.70
2019-04-27T14:40:13.148Z,14.70
2019-04-27T14:42:45.317Z,14.60
2019-04-27T14:45:18.825Z,14.60
2019-04-27T14:47:51.133Z,14.60
2019-04-27T14:50:23.218Z,14.60
2019-04-27T14:52:55.233Z,14.50
2019-04-27T14:55:28.275Z,14.50
2019-04-27T14:58:01.238Z,14.60
2019-04-27T15:00:32.943Z,14.60
2019-04-27T15:03:05.359Z,14.50
2019-04-27T15:05:37.520Z,14.50
2019-04-27T15:08:10.095Z,14.40
2019-04-27T15:10:42.000Z,14.40
2019-04-27T15:13:14.002Z,14.40
2019-04-27T15:15:46.065Z,14.50
2019-04-27T15:18:19.695Z,14.40
2019-04-27T15:20:51.820Z,14.50
2019-04-27T15:23:26.632Z,14.40
2019-04-27T15:25:57.784Z,14.40
2019-04-27T15:28:32.188Z,14.40
2019-04-27T15:31:27.052Z,14.40
2019-04-27T15:34:23.445Z,14.40
2019-04-27T15:37:14.754Z,14.40
2019-04-27T15:40:12.768Z,14.30
2019-04-27T15:43:05.208Z,14.30
2019-04-27T15:45:38.918Z,14.30
2019-04-27T15:48:10.924Z,14.20
2019-04-27T15:50:42.870Z,14.20
2019-04-27T15:53:15.354Z,14.30
2019-04-27T15:55:47.360Z,14.30
2019-04-27T15:58:24.941Z,14.30
2019-04-27T16:00:56.547Z,14.30
2019-04-27T16:03:30.892Z,14.30
2019-04-27T16:06:03.165Z,14.30
2019-04-27T16:08:38.192Z,14.30
2019-04-27T16:11:09.917Z,14.20
2019-04-27T16:13:41.998Z,14.20
2019-04-27T16:16:14.696Z,14.20
2019-04-27T16:18:49.008Z,14.10
2019-04-27T16:21:20.935Z,14.10
2019-04-27T16:23:52.832Z,14.20
2019-04-27T16:26:32.438Z,14.10
2019-04-27T16:29:04.907Z,14.00
2019-04-27T16:31:38.462Z,14.00
2019-04-27T16:34:10.826Z,14.00
2019-04-27T16:36:43.687Z,14.00
2019-04-27T16:39:18.115Z,14.00
2019-04-27T16:41:50.302Z,13.90
2019-04-27T16:44:22.894Z,13.90
2019-04-27T16:46:55.052Z,13.80
2019-04-27T16:49:28.905Z,13.70
2019-04-27T16:52:01.032Z,13.70
2019-04-27T16:54:33.287Z,13.70
2019-04-27T16:57:05.593Z,13.60
2019-04-27T16:59:44.071Z,13.60
2019-04-27T17:02:11.266Z,13.60
2019-04-27T17:04:44.630Z,13.60
2019-04-27T17:07:18.875Z,13.50
2019-04-27T17:09:51.070Z,13.50
2019-04-27T17:12:28.640Z,13.50
2019-04-27T17:15:16.522Z,13.50
2019-04-27T17:18:09.978Z,13.50
2019-04-27T17:20:42.256Z,13.60
2019-04-27T17:23:17.907Z,13.60
2019-04-27T17:25:52.859Z,13.60
2019-04-27T17:28:24.029Z,13.60
2019-04-27T17:30:56.390Z,13.50
2019-04-27T17:33:31.286Z,13.50
2019-04-27T17:36:03.782Z,13.50
2019-04-27T17:38:35.696Z,13.60
2019-04-27T17:41:09.441Z,13.60
2019-04-27T17:43:42.586Z,13.60
2019-04-27T17:46:14.870Z,13.70
2019-04-27T17:48:48.462Z,13.70
2019-04-27T17:51:20.866Z,13.70
2019-04-27T17:53:52.964Z,13.70
2019-04-27T17:56:34.060Z,13.70
2019-04-27T17:58:59.099Z,13.70
2019-04-27T18:01:31.950Z,13.70
2019-04-27T18:04:06.446Z,13.60
2019-04-27T18:06:39.018Z,13.60
2019-04-27T18:09:14.935Z,13.60
2019-04-27T18:11:54.658Z,13.60
2019-04-27T18:14:28.605Z,13.60
2019-04-27T18:17:03.650Z,13.60
2019-04-27T18:19:57.629Z,13.70
2019-04-27T18:22:36.642Z,13.60
2019-04-27T18:25:10.331Z,13.60
2019-04-27T18:27:51.588Z,13.60
2019-04-27T18:30:33.787Z,13.60
2019-04-27T18:33:05.276Z,13.60
2019-04-27T18:35:38.698Z,13.60
2019-04-27T18:38:11.016Z,13.50
2019-04-27T18:40:43.197Z,13.50
2019-04-27T18:43:15.017Z,13.50
2019-04-27T18:45:48.509Z,13.50
2019-04-27T18:48:28.595Z,13.50
2019-04-27T18:51:13.150Z,13.50
2019-04-27T18:53:45.309Z,13.50
2019-04-27T18:56:19.055Z,13.50
2019-04-27T18:58:50.910Z,13.50
2019-04-27T19:01:23.242Z,13.50
2019-04-27T19:03:55.670Z,13.50
2019-04-27T19:06:28.902Z,13.50
2019-04-27T19:09:01.570Z,13.50
2019-04-27T19:11:33.776Z,13.40
2019-04-27T19:14:08.132Z,13.40
2019-04-27T19:16:39.853Z,13.40
2019-04-27T19:19:12.272Z,13.40
2019-04-27T19:21:44.960Z,13.40
2019-04-27T19:24:16.759Z,13.40
2019-04-27T19:27:18.054Z,13.30
2019-04-27T19:29:48.521Z,13.30
2019-04-27T19:32:20.989Z,13.20
2019-04-27T19:34:53.090Z,13.20
2019-04-27T19:37:25.058Z,13.20
2019-04-27T19:39:58.344Z,13.30
2019-04-27T19:42:38.626Z,13.30
2019-04-27T19:45:11.108Z,13.30
2019-04-27T19:47:43.028Z,13.30
2019-04-27T19:50:15.480Z,13.30
2019-04-27T19:52:47.717Z,13.30
2019-04-27T19:55:19.768Z,13.40
2019-04-27T19:57:51.848Z,13.40
2019-04-27T20:00:48.633Z,13.40
2019-04-27T20:03:28.876Z,13.40
2019-04-27T20:06:00.668Z,13.40
2019-04-27T20:08:34.949Z,13.40
2019-04-27T20:11:06.942Z,13.50
2019-04-27T20:13:38.786Z,13.50
2019-04-27T20:16:10.927Z,13.50
2019-04-27T20:18:43.312Z,13.50
2019-04-27T20:21:15.560Z,13.50
2019-04-27T20:23:47.646Z,13.50
2019-04-27T20:26:19.632Z,13.50
2019-04-27T20:28:51.441Z,13.50
2019-04-27T20:31:23.618Z,13.40
2019-04-27T20:33:55.692Z,13.40
2019-04-27T20:36:27.552Z,13.40
2019-04-27T20:39:01.184Z,13.30
2019-04-27T20:41:33.061Z,13.30
2019-04-27T20:44:06.294Z,13.30
2019-04-27T20:46:38.360Z,13.30
2019-04-27T20:49:21.501Z,13.30
2019-04-27T20:52:10.901Z,13.30
2019-04-27T20:54:43.330Z,13.30
2019-04-27T20:57:15.544Z,13.30
2019-04-27T20:59:47.557Z,13.20
2019-04-27T21:02:51.878Z,13.30
2019-04-27T21:05:42.686Z,13.20
2019-04-27T21:08:15.001Z,13.20
2019-04-27T21:10:47.024Z,13.20
2019-04-27T21:13:19.696Z,13.20
2019-04-27T21:15:51.782Z,13.20
2019-04-27T21:18:23.999Z,13.20
2019-04-27T21:20:55.694Z,13.20
2019-04-27T21:23:27.822Z,13.20
2019-04-27T21:26:07.648Z,13.20
2019-04-27T21:28:38.961Z,13.20
2019-04-27T21:31:12.685Z,13.20
2019-04-27T21:33:44.711Z,13.20
2019-04-27T21:36:16.734Z,13.20
2019-04-27T21:38:48.897Z,13.20
2019-04-27T21:41:22.701Z,13.10
2019-04-27T21:43:54.840Z,13.10
2019-04-27T21:46:27.056Z,13.10
2019-04-27T21:48:59.194Z,13.10
2019-04-27T21:51:32.594Z,13.10
2019-04-27T21:54:14.636Z,13.10
2019-04-27T21:56:46.486Z,13.10
2019-04-27T21:59:18.402Z,13.00
2019-04-27T22:01:52.250Z,13.00
2019-04-27T22:04:23.940Z,12.90
2019-04-27T22:06:55.885Z,12.90
2019-04-27T22:09:27.868Z,12.90
2019-04-27T22:12:00.508Z,12.90
2019-04-27T22:14:33.464Z,12.80
2019-04-27T22:17:05.772Z,12.80
2019-04-27T22:19:37.946Z,12.80
2019-04-27T22:22:21.063Z,12.80
2019-04-27T22:24:54.264Z,12.80
2019-04-27T22:27:26.046Z,12.80
2019-04-27T22:29:57.836Z,12.80
2019-04-27T22:32:30.659Z,12.80
2019-04-27T22:35:03.461Z,12.80
2019-04-27T22:37:35.232Z,12.80
2019-04-27T22:40:41.868Z,12.80
2019-04-27T22:43:43.645Z,12.80
2019-04-27T22:46:21.641Z,12.80
2019-04-27T22:48:53.540Z,12.80
2019-04-27T22:51:25.154Z,12.70
2019-04-27T22:53:57.075Z,12.70
2019-04-27T22:56:28.971Z,12.70
2019-04-27T22:59:07.381Z,12.60
2019-04-27T23:01:58.596Z,12.60
2019-04-27T23:04:38.798Z,12.60
2019-04-27T23:07:11.162Z,12.60
2019-04-27T23:09:43.027Z,12.60
2019-04-27T23:12:15.154Z,12.60
2019-04-27T23:14:47.012Z,12.60
2019-04-27T23:17:51.660Z,12.60
2019-04-27T23:20:23.544Z,12.60
2019-04-27T23:22:55.561Z,12.50
2019-04-27T23:25:27.133Z,12.50
2019-04-27T23:27:58.757Z,12.50
2019-04-27T23:30:54.024Z,12.50
2019-04-27T23:33:27.426Z,12.40
2019-04-27T23:35:59.365Z,12.40
2019-04-27T23:38:31.222Z,12.40
2019-04-27T23:41:03.084Z,12.50
2019-04-27T23:43:35.036Z,12.40
2019-04-27T23:46:06.622Z,12.40
2019-04-27T23:48:38.483Z,12.50
2019-04-27T23:51:22.778Z,12.50
2019-04-27T23:53:54.356Z,12.40
2019-04-27T23:56:26.015Z,12.40
2019-04-27T23:58:57.610Z,12.40
